createdAt,value
2023-01-07T00:01:28.463Z,15.57
2023-01-07T00:03:56.788Z,14.27
2023-01-07T00:06:34.980Z,17.27
2023-01-07T00:09:03.572Z,15.90
2023-01-07T00:11:33.856Z,15.80
2023-01-07T00:14:02.211Z,16.23
2023-01-07T00:16:31.091Z,15.30
2023-01-07T00:19:00.264Z,15.57
2023-01-07T00:21:28.923Z,15.20
2023-01-07T00:23:58.395Z,15.20
2023-01-07T00:26:29.077Z,16.03
2023-01-07T00:28:56.033Z,16.40
2023-01-07T00:31:28.588Z,17.33
2023-01-07T00:33:55.738Z,16.13
2023-01-07T00:36:27.822Z,16.40
2023-01-07T00:38:58.639Z,17.57
2023-01-07T00:41:26.462Z,18.23
2023-01-07T00:43:53.246Z,16.67
2023-01-07T00:46:20.949Z,17.00
2023-01-07T00:48:48.076Z,16.73
2023-01-07T00:51:16.618Z,17.13
2023-01-07T00:53:44.010Z,16.23
2023-01-07T00:56:12.113Z,16.97
2023-01-07T00:58:39.051Z,17.13
2023-01-07T01:01:06.604Z,16.83
2023-01-07T01:03:34.043Z,17.70
2023-01-07T01:06:06.985Z,17.40
2023-01-07T01:08:34.144Z,17.63
2023-01-07T01:11:06.370Z,17.90
2023-01-07T01:13:34.288Z,19.13
2023-01-07T01:16:01.544Z,17.87
2023-01-07T01:18:28.489Z,19.17
2023-01-07T01:20:55.443Z,20.30
2023-01-07T01:23:22.511Z,18.20
2023-01-07T01:25:49.577Z,18.63
2023-01-07T01:28:16.418Z,19.90
2023-01-07T01:30:43.481Z,17.53
2023-01-07T01:33:11.202Z,17.03
2023-01-07T01:35:40.287Z,19.00
2023-01-07T01:38:07.410Z,17.93
2023-01-07T01:40:34.607Z,17.07
2023-01-07T01:43:01.688Z,19.00
2023-01-07T01:45:30.514Z,18.93
2023-01-07T01:48:06.619Z,19.23
2023-01-07T01:50:43.980Z,19.07
2023-01-07T01:53:28.553Z,17.97
2023-01-07T01:56:00.466Z,19.30
2023-01-07T01:58:33.085Z,19.17
2023-01-07T02:01:01.311Z,19.70
2023-01-07T02:03:31.182Z,19.83
2023-01-07T02:05:58.996Z,20.13
2023-01-07T02:08:25.785Z,18.80
2023-01-07T02:11:13.447Z,18.77
2023-01-07T02:14:07.908Z,19.20
2023-01-07T02:16:49.120Z,20.03
2023-01-07T02:19:48.041Z,22.87
2023-01-07T02:22:59.086Z,23.03
2023-01-07T02:25:42.023Z,24.17
2023-01-07T02:28:28.218Z,24.00
2023-01-07T02:31:17.527Z,24.57
2023-01-07T02:33:54.890Z,24.27
2023-01-07T02:36:28.053Z,23.83
2023-01-07T02:39:15.941Z,23.20
2023-01-07T02:41:57.797Z,23.30
2023-01-07T02:44:48.831Z,22.20
2023-01-07T02:47:21.515Z,23.47
2023-01-07T02:49:49.152Z,22.37
2023-01-07T02:52:28.664Z,21.73
2023-01-07T02:55:11.297Z,19.90
2023-01-07T02:58:14.001Z,21.00
2023-01-07T03:01:18.829Z,21.83
2023-01-07T03:04:17.980Z,22.17
2023-01-07T03:07:13.191Z,20.63
2023-01-07T03:10:02.456Z,20.83
2023-01-07T03:12:40.952Z,20.80
2023-01-07T03:15:19.894Z,20.43
2023-01-07T03:18:03.021Z,19.63
2023-01-07T03:20:33.718Z,18.17
2023-01-07T03:23:06.441Z,19.63
2023-01-07T03:25:37.849Z,18.47
2023-01-07T03:28:07.158Z,18.80
2023-01-07T03:30:34.533Z,16.83
2023-01-07T03:33:09.726Z,18.20
2023-01-07T03:35:41.650Z,17.30
2023-01-07T03:38:10.319Z,17.47
2023-01-07T03:40:38.177Z,15.57
2023-01-07T03:43:05.451Z,17.90
2023-01-07T03:45:32.446Z,16.33
2023-01-07T03:48:00.746Z,19.17
2023-01-07T03:50:34.659Z,16.97
2023-01-07T03:53:02.185Z,16.63
2023-01-07T03:55:30.442Z,16.20
2023-01-07T03:57:58.695Z,15.03
2023-01-07T04:00:26.415Z,15.83
2023-01-07T04:03:00.160Z,15.77
2023-01-07T04:05:31.829Z,15.00
2023-01-07T04:07:59.206Z,15.67
2023-01-07T04:10:30.774Z,16.03
2023-01-07T04:12:57.856Z,15.10
2023-01-07T04:15:25.496Z,16.23
2023-01-07T04:17:52.553Z,15.50
2023-01-07T04:20:19.419Z,15.90
2023-01-07T04:22:46.608Z,20.47
2023-01-07T04:25:13.704Z,18.53
2023-01-07T04:27:40.973Z,19.20
2023-01-07T04:30:08.418Z,18.03
2023-01-07T04:32:35.638Z,17.93
2023-01-07T04:35:02.456Z,18.50
2023-01-07T04:37:31.006Z,20.13
2023-01-07T04:39:58.070Z,20.40
2023-01-07T04:42:26.037Z,20.67
2023-01-07T04:44:53.933Z,20.90
2023-01-07T04:47:20.994Z,21.43
2023-01-07T04:49:47.977Z,23.23
2023-01-07T04:52:15.320Z,25.03
2023-01-07T04:54:42.121Z,23.10
2023-01-07T04:57:09.725Z,25.87
2023-01-07T04:59:37.666Z,37.27
2023-01-07T05:02:04.992Z,32.97
2023-01-07T05:04:32.187Z,38.53
2023-01-07T05:07:00.122Z,45.30
2023-01-07T05:09:27.472Z,39.97
2023-01-07T05:11:54.692Z,33.37
2023-01-07T05:14:21.876Z,30.20
2023-01-07T05:16:52.697Z,24.77
2023-01-07T05:19:19.647Z,23.10
2023-01-07T05:21:48.820Z,23.40
2023-01-07T05:24:16.999Z,24.37
2023-01-07T05:26:45.099Z,21.87
2023-01-07T05:29:12.244Z,22.37
2023-01-07T05:31:42.152Z,24.13
2023-01-07T05:34:09.316Z,20.87
2023-01-07T05:36:36.737Z,21.43
2023-01-07T05:39:05.630Z,20.67
2023-01-07T05:41:33.621Z,20.23
2023-01-07T05:44:02.277Z,21.70
2023-01-07T05:46:29.283Z,21.80
2023-01-07T05:48:56.122Z,22.03
2023-01-07T05:51:23.111Z,24.80
2023-01-07T05:53:49.829Z,23.10
2023-01-07T05:56:16.968Z,23.73
2023-01-07T05:58:43.702Z,24.67
2023-01-07T06:01:10.921Z,24.80
2023-01-07T06:03:37.819Z,21.40
2023-01-07T06:06:07.315Z,20.87
2023-01-07T06:08:38.507Z,21.83
2023-01-07T06:11:07.741Z,24.33
2023-01-07T06:13:35.077Z,23.97
2023-01-07T06:16:10.129Z,21.83
2023-01-07T06:18:37.137Z,21.10
2023-01-07T06:21:04.377Z,27.53
2023-01-07T06:23:31.487Z,22.40
2023-01-07T06:25:58.599Z,20.90
2023-01-07T06:28:25.385Z,23.90
2023-01-07T06:30:52.496Z,20.80
2023-01-07T06:33:19.441Z,19.63
2023-01-07T06:35:46.758Z,20.57
2023-01-07T06:38:13.569Z,19.43
2023-01-07T06:40:40.685Z,20.57
2023-01-07T06:43:07.400Z,19.33
2023-01-07T06:45:34.430Z,22.73
2023-01-07T06:48:01.281Z,21.87
2023-01-07T06:50:28.522Z,19.30
2023-01-07T06:52:56.863Z,20.00
2023-01-07T06:55:23.871Z,19.53
2023-01-07T06:57:50.642Z,18.67
2023-01-07T07:00:17.822Z,19.33
2023-01-07T07:02:44.615Z,19.60
2023-01-07T07:05:11.946Z,20.17
2023-01-07T07:07:38.730Z,20.30
2023-01-07T07:10:07.708Z,20.33
2023-01-07T07:12:35.920Z,20.97
2023-01-07T07:15:03.854Z,20.10
2023-01-07T07:17:30.630Z,20.93
2023-01-07T07:19:57.634Z,20.07
2023-01-07T07:22:24.566Z,21.17
2023-01-07T07:24:51.662Z,21.73
2023-01-07T07:27:18.381Z,20.43
2023-01-07T07:29:45.503Z,19.97
2023-01-07T07:32:12.282Z,20.83
2023-01-07T07:34:39.430Z,20.80
2023-01-07T07:37:06.152Z,22.37
2023-01-07T07:39:33.792Z,20.83
2023-01-07T07:42:04.797Z,19.73
2023-01-07T07:44:32.425Z,20.97
2023-01-07T07:46:59.345Z,21.10
2023-01-07T07:49:26.561Z,18.93
2023-01-07T07:51:53.567Z,18.93
2023-01-07T07:54:23.089Z,19.27
2023-01-07T07:56:50.766Z,19.13
2023-01-07T07:59:17.802Z,20.57
2023-01-07T08:01:44.642Z,21.90
2023-01-07T08:04:11.686Z,20.63
2023-01-07T08:06:38.529Z,18.17
2023-01-07T08:09:05.514Z,20.53
2023-01-07T08:11:32.360Z,21.53
2023-01-07T08:14:02.445Z,21.97
2023-01-07T08:16:29.795Z,21.67
2023-01-07T08:18:56.881Z,21.67
2023-01-07T08:21:23.626Z,20.83
2023-01-07T08:23:50.634Z,19.97
2023-01-07T08:26:17.488Z,24.43
2023-01-07T08:28:46.571Z,25.93
2023-01-07T08:31:13.798Z,22.80
2023-01-07T08:33:40.853Z,21.03
2023-01-07T08:36:22.170Z,21.70
2023-01-07T08:38:53.822Z,20.47
2023-01-07T08:41:24.741Z,20.53
2023-01-07T08:43:53.544Z,22.20
2023-01-07T08:46:20.491Z,20.77
2023-01-07T08:48:47.692Z,20.43
2023-01-07T08:51:14.547Z,19.07
2023-01-07T08:53:41.544Z,21.63
2023-01-07T08:56:08.684Z,20.30
2023-01-07T08:58:35.813Z,19.37
2023-01-07T09:01:05.812Z,20.70
2023-01-07T09:03:34.224Z,19.00
2023-01-07T09:06:01.203Z,18.50
2023-01-07T09:08:28.378Z,20.33
2023-01-07T09:10:56.139Z,20.27
2023-01-07T09:13:23.286Z,20.63
2023-01-07T09:15:50.040Z,19.77
2023-01-07T09:18:17.002Z,22.37
2023-01-07T09:20:44.382Z,22.20
2023-01-07T09:23:11.457Z,20.23
2023-01-07T09:25:38.181Z,18.93
2023-01-07T09:28:05.273Z,21.20
2023-01-07T09:30:32.186Z,21.10
2023-01-07T09:32:59.333Z,19.90
2023-01-07T09:35:26.145Z,22.67
2023-01-07T09:37:53.180Z,21.60
2023-01-07T09:40:27.516Z,21.40
2023-01-07T09:43:09.979Z,21.73
2023-01-07T09:45:41.528Z,22.97
2023-01-07T09:48:19.332Z,20.93
2023-01-07T09:50:50.925Z,22.27
2023-01-07T09:53:30.494Z,20.27
2023-01-07T09:56:10.844Z,19.90
2023-01-07T09:58:43.380Z,19.90
2023-01-07T10:01:12.974Z,20.93
2023-01-07T10:03:50.301Z,18.67
2023-01-07T10:06:53.682Z,22.30
2023-01-07T10:09:43.836Z,23.00
2023-01-07T10:12:25.929Z,21.47
2023-01-07T10:15:01.849Z,20.67
2023-01-07T10:17:38.285Z,21.70
2023-01-07T10:20:33.264Z,21.93
2023-01-07T10:23:08.813Z,33.67
2023-01-07T10:25:42.866Z,23.23
2023-01-07T10:28:41.093Z,23.17
2023-01-07T10:31:16.739Z,21.93
2023-01-07T10:33:45.869Z,22.07
2023-01-07T10:36:26.593Z,25.03
2023-01-07T10:38:58.006Z,23.23
2023-01-07T10:41:39.757Z,23.50
2023-01-07T10:44:21.754Z,24.53
2023-01-07T10:47:10.447Z,24.73
2023-01-07T10:50:17.301Z,24.87
2023-01-07T10:52:49.100Z,24.27
2023-01-07T10:55:51.142Z,23.40
2023-01-07T10:58:18.238Z,23.03
2023-01-07T11:00:48.105Z,26.73
2023-01-07T11:03:23.708Z,25.87
2023-01-07T11:05:55.282Z,25.00
2023-01-07T11:08:42.758Z,24.87
2023-01-07T11:11:15.782Z,22.93
2023-01-07T11:13:52.074Z,25.87
2023-01-07T11:16:23.618Z,24.40
2023-01-07T11:19:06.901Z,23.77
2023-01-07T11:21:44.355Z,25.20
2023-01-07T11:24:30.773Z,24.70
2023-01-07T11:27:17.882Z,23.40
2023-01-07T11:30:20.057Z,23.50
2023-01-07T11:32:57.927Z,23.57
2023-01-07T11:35:28.022Z,23.60
2023-01-07T11:37:55.874Z,26.00
2023-01-07T11:40:33.276Z,24.30
2023-01-07T11:43:24.439Z,23.63
2023-01-07T11:46:20.077Z,21.97
2023-01-07T11:48:52.909Z,23.43
2023-01-07T11:51:24.409Z,22.90
2023-01-07T11:53:59.996Z,21.87
2023-01-07T11:56:33.560Z,22.20
2023-01-07T11:59:13.388Z,22.70
2023-01-07T12:01:59.693Z,21.17
2023-01-07T12:04:29.464Z,21.17
2023-01-07T12:07:00.546Z,23.43
2023-01-07T12:09:37.392Z,23.93
2023-01-07T12:12:39.255Z,25.10
2023-01-07T12:15:18.203Z,25.37
2023-01-07T12:17:49.154Z,30.93
2023-01-07T12:20:30.965Z,32.17
2023-01-07T12:23:07.118Z,35.90
2023-01-07T12:25:57.617Z,35.07
2023-01-07T12:28:46.429Z,40.33
2023-01-07T12:31:36.817Z,38.07
2023-01-07T12:34:16.061Z,36.63
2023-01-07T12:36:52.713Z,38.33
2023-01-07T12:39:29.463Z,37.17
2023-01-07T12:42:09.373Z,38.27
2023-01-07T12:44:44.871Z,37.00
2023-01-07T12:47:32.732Z,41.57
2023-01-07T12:50:20.436Z,41.77
2023-01-07T12:52:52.707Z,43.67
2023-01-07T12:55:23.880Z,41.97
2023-01-07T12:58:12.690Z,45.93
2023-01-07T13:00:51.852Z,48.17
2023-01-07T13:03:31.214Z,48.70
2023-01-07T13:06:15.383Z,48.30
2023-01-07T13:09:06.752Z,50.30
2023-01-07T13:11:58.334Z,50.03
2023-01-07T13:14:29.072Z,50.97
2023-01-07T13:17:06.725Z,50.40
2023-01-07T13:19:33.477Z,50.70
2023-01-07T13:22:00.588Z,52.90
2023-01-07T13:25:15.073Z,52.70
2023-01-07T13:28:01.795Z,53.37
2023-01-07T13:30:44.490Z,52.47
2023-01-07T13:33:38.279Z,51.13
2023-01-07T13:36:19.741Z,50.97
2023-01-07T13:39:31.080Z,53.00
2023-01-07T13:42:32.909Z,54.90
2023-01-07T13:45:09.250Z,55.07
2023-01-07T13:47:57.794Z,56.43
2023-01-07T13:50:32.997Z,54.90
2023-01-07T13:53:04.170Z,55.13
2023-01-07T13:55:42.416Z,57.27
2023-01-07T13:58:30.811Z,58.60
2023-01-07T14:01:09.294Z,57.30
2023-01-07T14:03:42.386Z,56.10
2023-01-07T14:06:21.194Z,56.17
2023-01-07T14:08:55.042Z,58.33
2023-01-07T14:11:47.671Z,56.60
2023-01-07T14:14:38.251Z,56.80
2023-01-07T14:17:22.268Z,52.70
2023-01-07T14:20:18.197Z,52.77
2023-01-07T14:22:59.476Z,48.77
2023-01-07T14:25:26.208Z,50.20
2023-01-07T14:28:17.887Z,49.57
2023-01-07T14:30:47.040Z,50.93
2023-01-07T14:33:38.177Z,44.60
2023-01-07T14:36:08.087Z,46.23
2023-01-07T14:38:35.146Z,48.17
2023-01-07T14:41:10.875Z,44.63
2023-01-07T14:43:40.817Z,43.53
2023-01-07T14:46:22.896Z,47.67
2023-01-07T14:49:02.420Z,41.73
2023-01-07T14:51:44.695Z,45.60
2023-01-07T14:54:50.155Z,43.80
2023-01-07T14:57:29.350Z,49.43
2023-01-07T15:00:25.252Z,44.80
2023-01-07T15:03:16.575Z,42.53
2023-01-07T15:06:00.840Z,40.80
2023-01-07T15:08:58.334Z,41.70
2023-01-07T15:11:45.463Z,41.10
2023-01-07T15:14:40.690Z,42.87
2023-01-07T15:17:09.314Z,47.80
2023-01-07T15:19:40.085Z,54.30
2023-01-07T15:22:19.466Z,64.03
2023-01-07T15:24:55.422Z,70.00
2023-01-07T15:27:31.778Z,76.67
2023-01-07T15:30:24.765Z,80.30
2023-01-07T15:33:11.798Z,76.10
2023-01-07T15:35:42.055Z,82.70
2023-01-07T15:38:32.864Z,87.60
2023-01-07T15:40:59.927Z,111.40
2023-01-07T15:43:29.832Z,101.63
2023-01-07T15:46:07.890Z,90.03
2023-01-07T15:48:35.038Z,75.30
2023-01-07T15:51:01.805Z,65.83
2023-01-07T15:53:29.985Z,66.70
2023-01-07T15:56:10.253Z,61.67
2023-01-07T15:58:45.900Z,59.87
2023-01-07T16:01:19.854Z,59.47
2023-01-07T16:03:49.734Z,62.53
2023-01-07T16:06:39.394Z,62.47
2023-01-07T16:09:18.638Z,60.97
2023-01-07T16:11:45.707Z,66.33
2023-01-07T16:14:24.757Z,67.70
2023-01-07T16:17:11.843Z,84.10
2023-01-07T16:19:38.881Z,71.63
2023-01-07T16:22:06.906Z,65.13
2023-01-07T16:24:34.109Z,59.80
2023-01-07T16:27:05.341Z,70.17
2023-01-07T16:29:40.205Z,63.63
2023-01-07T16:32:07.751Z,64.10
2023-01-07T16:34:34.731Z,59.07
2023-01-07T16:37:04.843Z,53.40
2023-01-07T16:39:43.440Z,49.07
2023-01-07T16:42:20.578Z,49.83
2023-01-07T16:44:49.528Z,53.53
2023-01-07T16:47:36.558Z,52.27
2023-01-07T16:50:17.428Z,57.90
2023-01-07T16:52:55.355Z,52.23
2023-01-07T16:55:44.427Z,48.53
2023-01-07T16:58:28.919Z,48.83
2023-01-07T17:00:59.849Z,53.90
2023-01-07T17:03:28.006Z,50.70
2023-01-07T17:06:01.397Z,50.10
2023-01-07T17:08:29.758Z,56.70
2023-01-07T17:11:00.570Z,53.83
2023-01-07T17:13:32.665Z,51.63
2023-01-07T17:16:16.741Z,51.00
2023-01-07T17:18:43.546Z,52.37
2023-01-07T17:21:38.381Z,50.60
2023-01-07T17:24:06.397Z,52.43
2023-01-07T17:26:40.922Z,55.03
2023-01-07T17:29:13.124Z,58.23
2023-01-07T17:31:40.730Z,50.83
2023-01-07T17:34:11.355Z,54.50
2023-01-07T17:36:38.496Z,54.47
2023-01-07T17:39:05.209Z,49.77
2023-01-07T17:41:53.398Z,52.33
2023-01-07T17:44:22.488Z,55.90
2023-01-07T17:46:49.566Z,57.77
2023-01-07T17:49:16.311Z,56.93
2023-01-07T17:51:46.950Z,52.50
2023-01-07T17:54:22.847Z,53.33
2023-01-07T17:56:50.921Z,51.60
2023-01-07T17:59:20.437Z,57.20
2023-01-07T18:01:48.262Z,59.47
2023-01-07T18:04:15.243Z,59.60
2023-01-07T18:06:43.034Z,58.83
2023-01-07T18:09:11.416Z,56.87
2023-01-07T18:11:59.790Z,63.07
2023-01-07T18:14:26.621Z,62.27
2023-01-07T18:16:53.656Z,65.77
2023-01-07T18:19:20.877Z,63.30
2023-01-07T18:21:48.163Z,60.40
2023-01-07T18:24:20.263Z,63.97
2023-01-07T18:26:48.085Z,62.60
2023-01-07T18:29:14.930Z,65.27
2023-01-07T18:31:43.970Z,64.83
2023-01-07T18:34:12.702Z,65.00
2023-01-07T18:36:40.463Z,59.77
2023-01-07T18:39:11.119Z,62.70
2023-01-07T18:41:39.791Z,61.77
2023-01-07T18:44:06.723Z,62.73
2023-01-07T18:46:34.002Z,59.53
2023-01-07T18:49:00.809Z,60.47
2023-01-07T18:51:27.804Z,61.07
2023-01-07T18:53:54.509Z,58.70
2023-01-07T18:56:21.488Z,55.73
2023-01-07T18:58:52.923Z,59.73
2023-01-07T19:01:20.810Z,55.03
2023-01-07T19:03:47.975Z,55.70
2023-01-07T19:06:15.593Z,57.53
2023-01-07T19:08:45.077Z,58.73
2023-01-07T19:11:14.133Z,57.03
2023-01-07T19:13:41.514Z,59.23
2023-01-07T19:16:10.727Z,57.60
2023-01-07T19:18:38.037Z,58.33
2023-01-07T19:21:08.536Z,59.07
2023-01-07T19:23:35.320Z,58.83
2023-01-07T19:26:08.755Z,61.70
2023-01-07T19:28:35.855Z,65.80
2023-01-07T19:31:07.924Z,62.40
2023-01-07T19:33:35.226Z,60.67
2023-01-07T19:36:07.773Z,65.17
2023-01-07T19:38:54.263Z,67.60
2023-01-07T19:41:21.621Z,70.60
2023-01-07T19:43:52.058Z,63.53
2023-01-07T19:46:20.098Z,65.07
2023-01-07T19:48:47.338Z,65.87
2023-01-07T19:51:14.719Z,64.00
2023-01-07T19:53:41.510Z,66.63
2023-01-07T19:56:11.009Z,64.27
2023-01-07T19:58:39.081Z,64.57
2023-01-07T20:01:08.718Z,65.67
2023-01-07T20:03:36.769Z,70.27
2023-01-07T20:06:04.702Z,69.30
2023-01-07T20:08:31.394Z,71.67
2023-01-07T20:10:59.198Z,67.93
2023-01-07T20:13:27.257Z,71.97
2023-01-07T20:15:55.065Z,70.60
2023-01-07T20:18:22.703Z,72.53
2023-01-07T20:20:57.316Z,73.60
2023-01-07T20:23:25.060Z,73.77
2023-01-07T20:25:52.068Z,77.87
2023-01-07T20:28:19.083Z,76.57
2023-01-07T20:30:46.112Z,76.23
2023-01-07T20:33:13.005Z,75.40
2023-01-07T20:35:40.224Z,74.43
2023-01-07T20:38:09.391Z,76.50
2023-01-07T20:40:40.744Z,75.07
2023-01-07T20:43:08.535Z,76.00
2023-01-07T20:45:38.867Z,78.73
2023-01-07T20:48:05.647Z,75.60
2023-01-07T20:50:35.639Z,75.97
2023-01-07T20:53:02.570Z,76.57
2023-01-07T20:55:29.640Z,74.37
2023-01-07T20:57:56.400Z,75.33
2023-01-07T21:00:23.890Z,76.73
2023-01-07T21:02:50.733Z,73.43
2023-01-07T21:05:20.601Z,73.77
2023-01-07T21:07:47.969Z,73.50
2023-01-07T21:10:18.005Z,72.77
2023-01-07T21:12:45.909Z,70.90
2023-01-07T21:15:14.950Z,72.77
2023-01-07T21:17:42.184Z,75.30
2023-01-07T21:20:14.203Z,70.07
2023-01-07T21:22:41.779Z,74.43
2023-01-07T21:25:11.229Z,73.00
2023-01-07T21:27:42.017Z,72.80
2023-01-07T21:30:16.333Z,70.97
2023-01-07T21:32:43.433Z,72.90
2023-01-07T21:35:11.848Z,69.50
2023-01-07T21:37:39.330Z,68.43
2023-01-07T21:40:07.277Z,70.77
2023-01-07T21:42:37.188Z,69.40
2023-01-07T21:45:05.616Z,66.13
2023-01-07T21:47:32.578Z,65.87
2023-01-07T21:49:59.651Z,67.37
2023-01-07T21:52:26.473Z,66.33
2023-01-07T21:54:55.471Z,64.27
2023-01-07T21:57:23.781Z,62.20
2023-01-07T21:59:51.403Z,60.10
2023-01-07T22:02:21.398Z,62.90
2023-01-07T22:04:48.661Z,62.30
2023-01-07T22:07:17.599Z,62.87
2023-01-07T22:09:47.626Z,61.67
2023-01-07T22:12:14.936Z,62.00
2023-01-07T22:14:42.202Z,62.00
2023-01-07T22:17:10.865Z,60.03
2023-01-07T22:19:37.886Z,58.03
2023-01-07T22:22:07.226Z,57.43
2023-01-07T22:24:34.834Z,57.97
2023-01-07T22:27:02.030Z,61.00
2023-01-07T22:29:32.181Z,58.93
2023-01-07T22:31:59.293Z,58.43
2023-01-07T22:34:26.501Z,56.20
2023-01-07T22:37:07.346Z,57.43
2023-01-07T22:39:39.777Z,56.20
2023-01-07T22:42:16.998Z,61.07
2023-01-07T22:44:50.010Z,56.90
2023-01-07T22:47:22.649Z,55.37
2023-01-07T22:49:51.082Z,57.10
2023-01-07T22:52:18.184Z,57.27
2023-01-07T22:54:45.211Z,53.37
2023-01-07T22:57:13.814Z,54.37
2023-01-07T22:59:41.080Z,52.90
2023-01-07T23:02:07.926Z,54.00
2023-01-07T23:04:34.926Z,53.83
2023-01-07T23:07:01.811Z,52.43
2023-01-07T23:09:28.827Z,52.90
2023-01-07T23:12:00.759Z,50.07
2023-01-07T23:14:29.651Z,51.87
2023-01-07T23:16:56.770Z,47.57
2023-01-07T23:19:23.874Z,51.97
2023-01-07T23:21:52.741Z,49.60
2023-01-07T23:24:20.597Z,49.47
2023-01-07T23:26:50.581Z,50.30
2023-01-07T23:29:18.785Z,48.60
2023-01-07T23:31:45.802Z,47.73
2023-01-07T23:34:14.371Z,45.77
2023-01-07T23:36:41.339Z,46.17
2023-01-07T23:39:08.376Z,46.50
2023-01-07T23:41:35.185Z,46.27
2023-01-07T23:44:02.263Z,47.93
2023-01-07T23:46:29.116Z,45.90
2023-01-07T23:48:56.203Z,45.47
2023-01-07T23:51:22.962Z,43.13
2023-01-07T23:53:50.138Z,44.97
2023-01-07T23:56:21.234Z,45.80
2023-01-07T23:58:49.302Z,44.80
